sensor_id;sensor_type;location;lat;lon;timestamp;temperature;humidity
33827;DHT22;20128;45.582;5.298;2023-03-29T00:01:50;14.50;44.80
33827;DHT22;20128;45.582;5.298;2023-03-29T00:04:16;14.50;45.00
33827;DHT22;20128;45.582;5.298;2023-03-29T00:06:44;14.40;45.70
33827;DHT22;20128;45.582;5.298;2023-03-29T00:09:12;14.30;45.60
33827;DHT22;20128;45.582;5.298;2023-03-29T00:11:38;14.30;45.80
33827;DHT22;20128;45.582;5.298;2023-03-29T00:14:03;14.30;46.20
33827;DHT22;20128;45.582;5.298;2023-03-29T00:16:29;14.20;45.80
33827;DHT22;20128;45.582;5.298;2023-03-29T00:18:55;14.20;45.90
33827;DHT22;20128;45.582;5.298;2023-03-29T00:21:21;14.10;45.90
33827;DHT22;20128;45.582;5.298;2023-03-29T00:23:46;14.20;45.80
33827;DHT22;20128;45.582;5.298;2023-03-29T00:26:12;14.30;45.50
33827;DHT22;20128;45.582;5.298;2023-03-29T00:28:37;14.30;45.90
33827;DHT22;20128;45.582;5.298;2023-03-29T00:31:04;14.30;46.00
33827;DHT22;20128;45.582;5.298;2023-03-29T00:33:30;14.30;46.10
33827;DHT22;20128;45.582;5.298;2023-03-29T00:35:56;14.30;46.60
33827;DHT22;20128;45.582;5.298;2023-03-29T00:38:21;14.30;46.90
33827;DHT22;20128;45.582;5.298;2023-03-29T00:40:47;14.30;47.20
33827;DHT22;20128;45.582;5.298;2023-03-29T00:43:13;14.30;47.10
33827;DHT22;20128;45.582;5.298;2023-03-29T00:45:39;14.20;46.60
33827;DHT22;20128;45.582;5.298;2023-03-29T00:48:05;14.10;46.90
33827;DHT22;20128;45.582;5.298;2023-03-29T00:50:32;14.20;47.70
33827;DHT22;20128;45.582;5.298;2023-03-29T00:53:02;14.20;48.00
33827;DHT22;20128;45.582;5.298;2023-03-29T00:55:31;14.20;48.60
33827;DHT22;20128;45.582;5.298;2023-03-29T00:57:58;14.30;48.50
33827;DHT22;20128;45.582;5.298;2023-03-29T01:00:33;14.30;48.20
33827;DHT22;20128;45.582;5.298;2023-03-29T01:02:59;14.20;48.50
33827;DHT22;20128;45.582;5.298;2023-03-29T01:05:36;14.20;48.80
33827;DHT22;20128;45.582;5.298;2023-03-29T01:08:04;14.10;48.90
33827;DHT22;20128;45.582;5.298;2023-03-29T01:12:58;13.90;49.00
33827;DHT22;20128;45.582;5.298;2023-03-29T01:15:24;13.90;49.00
33827;DHT22;20128;45.582;5.298;2023-03-29T01:17:52;13.90;48.80
33827;DHT22;20128;45.582;5.298;2023-03-29T01:28:13;13.70;48.30
33827;DHT22;20128;45.582;5.298;2023-03-29T01:30:48;13.60;48.40
33827;DHT22;20128;45.582;5.298;2023-03-29T01:36:24;13.70;48.30
33827;DHT22;20128;45.582;5.298;2023-03-29T01:38:54;13.70;48.50
33827;DHT22;20128;45.582;5.298;2023-03-29T01:41:20;13.70;48.60
33827;DHT22;20128;45.582;5.298;2023-03-29T01:43:53;13.70;48.40
33827;DHT22;20128;45.582;5.298;2023-03-29T01:46:25;13.60;48.80
33827;DHT22;20128;45.582;5.298;2023-03-29T01:48:55;13.60;49.10
33827;DHT22;20128;45.582;5.298;2023-03-29T01:51:24;13.60;49.20
33827;DHT22;20128;45.582;5.298;2023-03-29T01:53:56;13.50;49.40
33827;DHT22;20128;45.582;5.298;2023-03-29T01:56:25;13.30;49.90
33827;DHT22;20128;45.582;5.298;2023-03-29T01:58:53;13.30;50.10
33827;DHT22;20128;45.582;5.298;2023-03-29T02:01:22;13.30;50.30
33827;DHT22;20128;45.582;5.298;2023-03-29T02:03:51;13.20;50.60
33827;DHT22;20128;45.582;5.298;2023-03-29T02:06:20;13.10;50.70
33827;DHT22;20128;45.582;5.298;2023-03-29T02:08:46;13.10;50.80
33827;DHT22;20128;45.582;5.298;2023-03-29T02:11:12;13.10;51.00
33827;DHT22;20128;45.582;5.298;2023-03-29T02:13:38;13.10;51.00
33827;DHT22;20128;45.582;5.298;2023-03-29T02:16:10;13.10;50.90
33827;DHT22;20128;45.582;5.298;2023-03-29T02:18:42;13.10;50.80
33827;DHT22;20128;45.582;5.298;2023-03-29T02:21:09;13.00;50.40
33827;DHT22;20128;45.582;5.298;2023-03-29T02:23:39;13.00;50.30
33827;DHT22;20128;45.582;5.298;2023-03-29T02:26:09;13.00;50.40
33827;DHT22;20128;45.582;5.298;2023-03-29T02:28:35;12.90;50.40
33827;DHT22;20128;45.582;5.298;2023-03-29T02:36:33;13.00;49.90
33827;DHT22;20128;45.582;5.298;2023-03-29T02:39:02;13.00;50.00
33827;DHT22;20128;45.582;5.298;2023-03-29T02:41:30;13.00;50.20
33827;DHT22;20128;45.582;5.298;2023-03-29T02:43:56;12.90;50.10
33827;DHT22;20128;45.582;5.298;2023-03-29T02:46:22;12.90;50.20
33827;DHT22;20128;45.582;5.298;2023-03-29T02:48:48;12.90;50.40
33827;DHT22;20128;45.582;5.298;2023-03-29T02:51:17;12.90;50.40
33827;DHT22;20128;45.582;5.298;2023-03-29T02:53:46;12.90;50.40
33827;DHT22;20128;45.582;5.298;2023-03-29T02:56:14;12.80;50.20
33827;DHT22;20128;45.582;5.298;2023-03-29T02:58:39;12.90;49.80
33827;DHT22;20128;45.582;5.298;2023-03-29T03:01:05;12.80;49.90
33827;DHT22;20128;45.582;5.298;2023-03-29T03:03:31;12.90;50.10
33827;DHT22;20128;45.582;5.298;2023-03-29T03:05:57;13.00;49.80
33827;DHT22;20128;45.582;5.298;2023-03-29T03:08:22;13.10;49.60
33827;DHT22;20128;45.582;5.298;2023-03-29T03:10:48;13.10;49.70
33827;DHT22;20128;45.582;5.298;2023-03-29T03:13:13;13.10;49.80
33827;DHT22;20128;45.582;5.298;2023-03-29T03:15:39;13.00;50.00
33827;DHT22;20128;45.582;5.298;2023-03-29T03:18:09;13.10;50.20
33827;DHT22;20128;45.582;5.298;2023-03-29T03:20:36;13.10;50.30
33827;DHT22;20128;45.582;5.298;2023-03-29T03:23:02;13.10;50.30
33827;DHT22;20128;45.582;5.298;2023-03-29T03:25:27;13.10;50.20
33827;DHT22;20128;45.582;5.298;2023-03-29T03:27:53;13.10;50.20
33827;DHT22;20128;45.582;5.298;2023-03-29T03:30:19;13.10;49.90
33827;DHT22;20128;45.582;5.298;2023-03-29T03:32:45;13.10;49.60
33827;DHT22;20128;45.582;5.298;2023-03-29T03:35:10;13.10;49.80
33827;DHT22;20128;45.582;5.298;2023-03-29T03:37:36;13.10;49.90
33827;DHT22;20128;45.582;5.298;2023-03-29T03:40:03;13.10;50.10
33827;DHT22;20128;45.582;5.298;2023-03-29T03:42:30;13.10;50.20
33827;DHT22;20128;45.582;5.298;2023-03-29T03:44:55;13.10;50.30
33827;DHT22;20128;45.582;5.298;2023-03-29T03:47:21;13.10;50.30
33827;DHT22;20128;45.582;5.298;2023-03-29T03:49:47;13.00;50.30
33827;DHT22;20128;45.582;5.298;2023-03-29T03:52:12;13.10;50.30
33827;DHT22;20128;45.582;5.298;2023-03-29T03:54:38;13.10;50.00
33827;DHT22;20128;45.582;5.298;2023-03-29T03:57:03;13.20;49.70
33827;DHT22;20128;45.582;5.298;2023-03-29T03:59:29;13.20;49.70
33827;DHT22;20128;45.582;5.298;2023-03-29T04:01:54;13.20;49.30
33827;DHT22;20128;45.582;5.298;2023-03-29T04:04:20;13.20;49.50
33827;DHT22;20128;45.582;5.298;2023-03-29T04:06:47;13.20;49.50
33827;DHT22;20128;45.582;5.298;2023-03-29T04:09:12;13.20;49.50
33827;DHT22;20128;45.582;5.298;2023-03-29T04:11:38;13.10;49.50
33827;DHT22;20128;45.582;5.298;2023-03-29T04:14:04;13.10;49.30
33827;DHT22;20128;45.582;5.298;2023-03-29T04:16:29;13.10;49.70
33827;DHT22;20128;45.582;5.298;2023-03-29T04:18:55;13.10;49.70
33827;DHT22;20128;45.582;5.298;2023-03-29T04:21:20;13.20;49.80
33827;DHT22;20128;45.582;5.298;2023-03-29T04:23:46;13.20;49.90
33827;DHT22;20128;45.582;5.298;2023-03-29T04:26:12;13.20;49.90
33827;DHT22;20128;45.582;5.298;2023-03-29T04:28:42;13.10;50.00
33827;DHT22;20128;45.582;5.298;2023-03-29T04:31:09;13.00;50.00
33827;DHT22;20128;45.582;5.298;2023-03-29T04:33:35;13.00;50.20
33827;DHT22;20128;45.582;5.298;2023-03-29T04:36:00;13.00;50.40
33827;DHT22;20128;45.582;5.298;2023-03-29T04:38:26;13.00;50.30
33827;DHT22;20128;45.582;5.298;2023-03-29T04:40:51;13.00;50.20
33827;DHT22;20128;45.582;5.298;2023-03-29T04:43:19;13.10;49.80
33827;DHT22;20128;45.582;5.298;2023-03-29T04:45:47;13.10;49.80
33827;DHT22;20128;45.582;5.298;2023-03-29T04:48:13;13.00;49.70
33827;DHT22;20128;45.582;5.298;2023-03-29T04:50:39;13.00;49.50
33827;DHT22;20128;45.582;5.298;2023-03-29T04:53:05;13.00;49.40
33827;DHT22;20128;45.582;5.298;2023-03-29T04:55:31;13.00;49.50
33827;DHT22;20128;45.582;5.298;2023-03-29T04:57:57;13.00;49.80
33827;DHT22;20128;45.582;5.298;2023-03-29T05:00:22;13.00;49.80
33827;DHT22;20128;45.582;5.298;2023-03-29T05:02:51;13.00;49.50
33827;DHT22;20128;45.582;5.298;2023-03-29T05:05:17;13.00;49.50
33827;DHT22;20128;45.582;5.298;2023-03-29T05:07:42;13.00;49.70
33827;DHT22;20128;45.582;5.298;2023-03-29T05:10:09;13.00;50.00
33827;DHT22;20128;45.582;5.298;2023-03-29T05:12:35;13.00;50.10
33827;DHT22;20128;45.582;5.298;2023-03-29T05:15:01;13.00;50.40
33827;DHT22;20128;45.582;5.298;2023-03-29T05:17:26;13.00;50.90
33827;DHT22;20128;45.582;5.298;2023-03-29T05:19:52;13.00;50.90
33827;DHT22;20128;45.582;5.298;2023-03-29T05:22:18;13.00;50.80
33827;DHT22;20128;45.582;5.298;2023-03-29T05:24:44;13.00;50.80
33827;DHT22;20128;45.582;5.298;2023-03-29T05:27:10;13.00;50.70
33827;DHT22;20128;45.582;5.298;2023-03-29T05:29:36;13.00;50.90
33827;DHT22;20128;45.582;5.298;2023-03-29T05:32:01;13.10;49.70
33827;DHT22;20128;45.582;5.298;2023-03-29T05:34:27;13.00;49.10
33827;DHT22;20128;45.582;5.298;2023-03-29T05:36:52;13.00;49.40
33827;DHT22;20128;45.582;5.298;2023-03-29T05:39:18;13.00;49.50
33827;DHT22;20128;45.582;5.298;2023-03-29T05:41:43;13.00;50.00
33827;DHT22;20128;45.582;5.298;2023-03-29T05:44:09;13.00;50.10
33827;DHT22;20128;45.582;5.298;2023-03-29T05:46:35;13.00;50.80
33827;DHT22;20128;45.582;5.298;2023-03-29T05:49:00;12.90;51.00
33827;DHT22;20128;45.582;5.298;2023-03-29T05:51:26;12.90;51.80
33827;DHT22;20128;45.582;5.298;2023-03-29T05:53:52;12.90;51.50
33827;DHT22;20128;45.582;5.298;2023-03-29T05:56:18;12.90;51.70
33827;DHT22;20128;45.582;5.298;2023-03-29T05:58:43;12.90;51.80
33827;DHT22;20128;45.582;5.298;2023-03-29T06:01:11;12.90;52.00
33827;DHT22;20128;45.582;5.298;2023-03-29T06:03:37;13.00;52.20
33827;DHT22;20128;45.582;5.298;2023-03-29T06:06:03;13.00;52.60
33827;DHT22;20128;45.582;5.298;2023-03-29T06:08:29;13.00;52.60
33827;DHT22;20128;45.582;5.298;2023-03-29T06:11:02;13.00;52.90
33827;DHT22;20128;45.582;5.298;2023-03-29T06:13:28;13.00;53.30
33827;DHT22;20128;45.582;5.298;2023-03-29T06:15:54;13.00;53.20
33827;DHT22;20128;45.582;5.298;2023-03-29T06:18:19;13.00;53.40
33827;DHT22;20128;45.582;5.298;2023-03-29T06:20:48;13.00;53.50
33827;DHT22;20128;45.582;5.298;2023-03-29T06:23:15;13.00;53.70
33827;DHT22;20128;45.582;5.298;2023-03-29T06:25:42;13.00;53.80
33827;DHT22;20128;45.582;5.298;2023-03-29T06:28:08;13.00;53.90
33827;DHT22;20128;45.582;5.298;2023-03-29T06:30:34;13.10;54.00
33827;DHT22;20128;45.582;5.298;2023-03-29T06:32:59;13.10;53.90
33827;DHT22;20128;45.582;5.298;2023-03-29T06:35:25;13.10;54.00
33827;DHT22;20128;45.582;5.298;2023-03-29T06:37:51;13.00;54.30
33827;DHT22;20128;45.582;5.298;2023-03-29T06:40:18;13.10;54.60
33827;DHT22;20128;45.582;5.298;2023-03-29T06:42:46;13.10;54.50
33827;DHT22;20128;45.582;5.298;2023-03-29T06:45:12;13.10;54.50
33827;DHT22;20128;45.582;5.298;2023-03-29T06:47:38;13.10;54.50
33827;DHT22;20128;45.582;5.298;2023-03-29T06:50:04;13.10;53.90
33827;DHT22;20128;45.582;5.298;2023-03-29T06:52:30;13.20;53.70
33827;DHT22;20128;45.582;5.298;2023-03-29T06:54:55;13.20;52.90
33827;DHT22;20128;45.582;5.298;2023-03-29T06:57:21;13.20;53.00
33827;DHT22;20128;45.582;5.298;2023-03-29T06:59:46;13.20;52.90
33827;DHT22;20128;45.582;5.298;2023-03-29T07:02:12;13.30;52.60
33827;DHT22;20128;45.582;5.298;2023-03-29T07:04:38;13.30;52.20
33827;DHT22;20128;45.582;5.298;2023-03-29T07:07:06;13.40;51.80
33827;DHT22;20128;45.582;5.298;2023-03-29T07:09:36;13.40;51.50
33827;DHT22;20128;45.582;5.298;2023-03-29T07:12:04;13.40;51.70
33827;DHT22;20128;45.582;5.298;2023-03-29T07:14:30;13.50;51.70
33827;DHT22;20128;45.582;5.298;2023-03-29T07:16:56;13.60;49.70
33827;DHT22;20128;45.582;5.298;2023-03-29T07:19:22;13.50;49.40
33827;DHT22;20128;45.582;5.298;2023-03-29T07:21:50;13.60;49.70
33827;DHT22;20128;45.582;5.298;2023-03-29T07:24:15;13.50;49.20
33827;DHT22;20128;45.582;5.298;2023-03-29T07:26:41;13.50;49.50
33827;DHT22;20128;45.582;5.298;2023-03-29T07:29:07;13.60;48.80
33827;DHT22;20128;45.582;5.298;2023-03-29T07:31:34;13.60;48.30
33827;DHT22;20128;45.582;5.298;2023-03-29T07:34:00;13.60;48.10
33827;DHT22;20128;45.582;5.298;2023-03-29T07:36:27;13.60;48.30
33827;DHT22;20128;45.582;5.298;2023-03-29T07:38:53;13.60;47.80
33827;DHT22;20128;45.582;5.298;2023-03-29T07:41:21;13.60;47.90
33827;DHT22;20128;45.582;5.298;2023-03-29T07:43:46;13.60;47.90
33827;DHT22;20128;45.582;5.298;2023-03-29T07:46:12;13.70;47.70
33827;DHT22;20128;45.582;5.298;2023-03-29T07:48:38;13.70;47.40
33827;DHT22;20128;45.582;5.298;2023-03-29T07:51:04;13.70;47.60
33827;DHT22;20128;45.582;5.298;2023-03-29T07:53:30;13.80;47.70
33827;DHT22;20128;45.582;5.298;2023-03-29T07:55:56;13.80;47.40
33827;DHT22;20128;45.582;5.298;2023-03-29T07:58:21;13.80;47.90
33827;DHT22;20128;45.582;5.298;2023-03-29T08:00:47;13.90;47.90
33827;DHT22;20128;45.582;5.298;2023-03-29T08:03:13;13.90;47.90
33827;DHT22;20128;45.582;5.298;2023-03-29T08:05:39;14.00;47.80
33827;DHT22;20128;45.582;5.298;2023-03-29T08:08:05;14.10;47.00
33827;DHT22;20128;45.582;5.298;2023-03-29T08:10:31;14.20;45.90
33827;DHT22;20128;45.582;5.298;2023-03-29T08:12:58;14.20;46.60
33827;DHT22;20128;45.582;5.298;2023-03-29T08:15:24;14.20;46.80
33827;DHT22;20128;45.582;5.298;2023-03-29T08:17:49;14.20;46.30
33827;DHT22;20128;45.582;5.298;2023-03-29T08:20:15;14.30;46.20
33827;DHT22;20128;45.582;5.298;2023-03-29T08:22:40;14.30;46.20
33827;DHT22;20128;45.582;5.298;2023-03-29T08:25:06;14.40;46.20
33827;DHT22;20128;45.582;5.298;2023-03-29T08:27:32;14.40;46.50
33827;DHT22;20128;45.582;5.298;2023-03-29T08:29:58;14.40;46.10
33827;DHT22;20128;45.582;5.298;2023-03-29T08:32:24;14.50;46.10
33827;DHT22;20128;45.582;5.298;2023-03-29T08:34:49;14.60;46.60
33827;DHT22;20128;45.582;5.298;2023-03-29T08:37:15;14.60;46.40
33827;DHT22;20128;45.582;5.298;2023-03-29T08:39:40;14.70;46.70
33827;DHT22;20128;45.582;5.298;2023-03-29T08:45:14;14.80;46.60
33827;DHT22;20128;45.582;5.298;2023-03-29T08:47:41;14.90;46.90
33827;DHT22;20128;45.582;5.298;2023-03-29T08:50:08;15.00;46.20
33827;DHT22;20128;45.582;5.298;2023-03-29T08:52:39;15.00;45.70
33827;DHT22;20128;45.582;5.298;2023-03-29T08:55:12;15.10;46.20
33827;DHT22;20128;45.582;5.298;2023-03-29T08:57:45;15.20;46.30
33827;DHT22;20128;45.582;5.298;2023-03-29T09:02:52;15.30;42.90
33827;DHT22;20128;45.582;5.298;2023-03-29T09:05:28;15.40;41.70
33827;DHT22;20128;45.582;5.298;2023-03-29T09:07:55;15.50;42.70
33827;DHT22;20128;45.582;5.298;2023-03-29T09:10:23;15.50;43.90
33827;DHT22;20128;45.582;5.298;2023-03-29T09:15:27;15.60;45.10
33827;DHT22;20128;45.582;5.298;2023-03-29T09:20:34;15.60;44.80
33827;DHT22;20128;45.582;5.298;2023-03-29T09:23:24;15.60;44.50
33827;DHT22;20128;45.582;5.298;2023-03-29T09:25:59;15.60;44.40
33827;DHT22;20128;45.582;5.298;2023-03-29T09:28:39;15.70;43.80
33827;DHT22;20128;45.582;5.298;2023-03-29T09:31:34;15.70;44.00
33827;DHT22;20128;45.582;5.298;2023-03-29T09:34:02;15.60;43.70
33827;DHT22;20128;45.582;5.298;2023-03-29T09:36:41;15.60;43.60
33827;DHT22;20128;45.582;5.298;2023-03-29T09:39:10;15.70;44.40
33827;DHT22;20128;45.582;5.298;2023-03-29T09:44:11;15.60;44.40
33827;DHT22;20128;45.582;5.298;2023-03-29T09:46:41;15.60;44.40
33827;DHT22;20128;45.582;5.298;2023-03-29T09:49:12;15.60;44.50
33827;DHT22;20128;45.582;5.298;2023-03-29T09:51:41;15.60;44.50
33827;DHT22;20128;45.582;5.298;2023-03-29T09:54:09;15.60;45.00
33827;DHT22;20128;45.582;5.298;2023-03-29T09:56:36;15.70;43.90
33827;DHT22;20128;45.582;5.298;2023-03-29T09:59:01;15.70;43.90
33827;DHT22;20128;45.582;5.298;2023-03-29T10:01:33;15.70;44.50
33827;DHT22;20128;45.582;5.298;2023-03-29T10:03:59;15.80;44.20
33827;DHT22;20128;45.582;5.298;2023-03-29T10:06:25;15.80;43.10
33827;DHT22;20128;45.582;5.298;2023-03-29T10:08:52;15.90;43.80
33827;DHT22;20128;45.582;5.298;2023-03-29T10:13:45;16.10;43.70
33827;DHT22;20128;45.582;5.298;2023-03-29T10:16:19;16.10;43.40
33827;DHT22;20128;45.582;5.298;2023-03-29T10:18:45;16.20;43.10
33827;DHT22;20128;45.582;5.298;2023-03-29T10:21:12;16.30;43.40
33827;DHT22;20128;45.582;5.298;2023-03-29T10:23:40;16.50;43.30
33827;DHT22;20128;45.582;5.298;2023-03-29T10:26:09;16.60;43.20
33827;DHT22;20128;45.582;5.298;2023-03-29T10:28:36;16.70;43.60
33827;DHT22;20128;45.582;5.298;2023-03-29T10:31:02;16.70;43.40
33827;DHT22;20128;45.582;5.298;2023-03-29T10:33:30;16.70;43.60
33827;DHT22;20128;45.582;5.298;2023-03-29T10:35:56;16.70;43.10
33827;DHT22;20128;45.582;5.298;2023-03-29T10:38:23;16.80;43.50
33827;DHT22;20128;45.582;5.298;2023-03-29T10:46:05;16.90;42.40
33827;DHT22;20128;45.582;5.298;2023-03-29T10:48:33;17.00;43.20
33827;DHT22;20128;45.582;5.298;2023-03-29T10:50:59;17.10;43.70
33827;DHT22;20128;45.582;5.298;2023-03-29T10:53:29;17.10;43.10
33827;DHT22;20128;45.582;5.298;2023-03-29T10:58:35;17.10;42.80
33827;DHT22;20128;45.582;5.298;2023-03-29T11:01:02;17.20;43.10
33827;DHT22;20128;45.582;5.298;2023-03-29T11:03:32;17.40;43.00
33827;DHT22;20128;45.582;5.298;2023-03-29T11:08:36;17.50;41.80
33827;DHT22;20128;45.582;5.298;2023-03-29T11:13:32;17.80;41.50
33827;DHT22;20128;45.582;5.298;2023-03-29T11:20:57;18.10;41.30
33827;DHT22;20128;45.582;5.298;2023-03-29T11:28:54;18.40;41.20
33827;DHT22;20128;45.582;5.298;2023-03-29T11:34:17;18.50;41.20
33827;DHT22;20128;45.582;5.298;2023-03-29T11:42:04;18.80;42.40
33827;DHT22;20128;45.582;5.298;2023-03-29T11:44:32;18.90;42.70
33827;DHT22;20128;45.582;5.298;2023-03-29T11:47:02;19.00;42.50
33827;DHT22;20128;45.582;5.298;2023-03-29T11:52:06;19.10;42.30
33827;DHT22;20128;45.582;5.298;2023-03-29T11:54:52;19.10;42.80
33827;DHT22;20128;45.582;5.298;2023-03-29T11:57:21;19.10;43.10
33827;DHT22;20128;45.582;5.298;2023-03-29T12:04:58;19.30;42.80
33827;DHT22;20128;45.582;5.298;2023-03-29T12:07:28;19.40;42.70
33827;DHT22;20128;45.582;5.298;2023-03-29T12:12:22;19.40;42.70
33827;DHT22;20128;45.582;5.298;2023-03-29T12:15:14;19.50;42.80
33827;DHT22;20128;45.582;5.298;2023-03-29T12:17:56;19.50;43.00
33827;DHT22;20128;45.582;5.298;2023-03-29T12:20:29;19.60;43.20
33827;DHT22;20128;45.582;5.298;2023-03-29T12:22:56;19.60;42.70
33827;DHT22;20128;45.582;5.298;2023-03-29T12:25:27;19.70;43.20
33827;DHT22;20128;45.582;5.298;2023-03-29T12:28:07;19.70;44.00
33827;DHT22;20128;45.582;5.298;2023-03-29T12:38:43;19.90;44.00
33827;DHT22;20128;45.582;5.298;2023-03-29T12:41:19;19.90;44.00
33827;DHT22;20128;45.582;5.298;2023-03-29T12:43:46;19.90;44.10
33827;DHT22;20128;45.582;5.298;2023-03-29T12:46:16;20.00;44.50
33827;DHT22;20128;45.582;5.298;2023-03-29T12:48:43;20.10;43.80
33827;DHT22;20128;45.582;5.298;2023-03-29T12:51:13;20.10;43.70
33827;DHT22;20128;45.582;5.298;2023-03-29T12:53:40;20.10;44.00
33827;DHT22;20128;45.582;5.298;2023-03-29T12:56:08;20.20;44.20
33827;DHT22;20128;45.582;5.298;2023-03-29T13:01:08;20.30;44.20
33827;DHT22;20128;45.582;5.298;2023-03-29T13:06:31;20.50;43.80
33827;DHT22;20128;45.582;5.298;2023-03-29T13:08:58;20.50;43.90
33827;DHT22;20128;45.582;5.298;2023-03-29T13:11:25;20.60;44.30
33827;DHT22;20128;45.582;5.298;2023-03-29T13:13:52;20.70;44.30
33827;DHT22;20128;45.582;5.298;2023-03-29T13:16:18;20.70;44.50
33827;DHT22;20128;45.582;5.298;2023-03-29T13:24:00;21.00;43.90
33827;DHT22;20128;45.582;5.298;2023-03-29T13:26:48;21.00;42.90
33827;DHT22;20128;45.582;5.298;2023-03-29T13:39:49;21.30;43.40
33827;DHT22;20128;45.582;5.298;2023-03-29T13:42:22;21.30;43.20
33827;DHT22;20128;45.582;5.298;2023-03-29T13:44:48;21.30;42.90
33827;DHT22;20128;45.582;5.298;2023-03-29T13:50:02;21.30;43.40
33827;DHT22;20128;45.582;5.298;2023-03-29T13:52:30;21.30;43.70
33827;DHT22;20128;45.582;5.298;2023-03-29T14:03:04;21.60;43.90
33827;DHT22;20128;45.582;5.298;2023-03-29T14:05:33;21.70;42.30
33827;DHT22;20128;45.582;5.298;2023-03-29T14:08:08;21.70;43.00
33827;DHT22;20128;45.582;5.298;2023-03-29T14:10:36;21.80;43.40
33827;DHT22;20128;45.582;5.298;2023-03-29T14:13:03;21.90;43.40
33827;DHT22;20128;45.582;5.298;2023-03-29T14:15:40;22.00;43.50
33827;DHT22;20128;45.582;5.298;2023-03-29T14:18:08;22.10;43.60
33827;DHT22;20128;45.582;5.298;2023-03-29T14:20:34;22.30;43.10
33827;DHT22;20128;45.582;5.298;2023-03-29T14:23:06;22.30;42.90
33827;DHT22;20128;45.582;5.298;2023-03-29T14:25:35;22.40;42.80
33827;DHT22;20128;45.582;5.298;2023-03-29T14:28:01;22.40;43.10
33827;DHT22;20128;45.582;5.298;2023-03-29T14:30:27;22.40;43.70
33827;DHT22;20128;45.582;5.298;2023-03-29T14:32:53;22.40;43.20
33827;DHT22;20128;45.582;5.298;2023-03-29T14:35:19;22.40;43.20
33827;DHT22;20128;45.582;5.298;2023-03-29T14:37:51;22.40;43.40
33827;DHT22;20128;45.582;5.298;2023-03-29T14:40:17;22.30;43.70
33827;DHT22;20128;45.582;5.298;2023-03-29T14:42:44;22.30;44.00
33827;DHT22;20128;45.582;5.298;2023-03-29T14:45:11;22.30;44.50
33827;DHT22;20128;45.582;5.298;2023-03-29T14:47:37;22.30;44.60
33827;DHT22;20128;45.582;5.298;2023-03-29T14:50:04;22.30;45.00
33827;DHT22;20128;45.582;5.298;2023-03-29T14:52:31;22.30;44.70
33827;DHT22;20128;45.582;5.298;2023-03-29T14:54:58;22.30;44.90
33827;DHT22;20128;45.582;5.298;2023-03-29T14:57:25;22.30;45.30
33827;DHT22;20128;45.582;5.298;2023-03-29T14:59:52;22.20;45.60
33827;DHT22;20128;45.582;5.298;2023-03-29T15:02:30;22.20;45.70
33827;DHT22;20128;45.582;5.298;2023-03-29T15:05:02;22.20;46.30
33827;DHT22;20128;45.582;5.298;2023-03-29T15:07:29;22.20;46.30
33827;DHT22;20128;45.582;5.298;2023-03-29T15:09:55;22.10;46.40
33827;DHT22;20128;45.582;5.298;2023-03-29T15:12:21;22.20;46.10
33827;DHT22;20128;45.582;5.298;2023-03-29T15:14:48;22.10;46.20
33827;DHT22;20128;45.582;5.298;2023-03-29T15:17:22;22.10;46.50
33827;DHT22;20128;45.582;5.298;2023-03-29T15:19:50;22.10;47.20
33827;DHT22;20128;45.582;5.298;2023-03-29T15:22:16;22.10;47.10
33827;DHT22;20128;45.582;5.298;2023-03-29T15:24:42;22.10;47.40
33827;DHT22;20128;45.582;5.298;2023-03-29T15:27:11;22.10;47.60
33827;DHT22;20128;45.582;5.298;2023-03-29T15:29:38;22.20;47.80
33827;DHT22;20128;45.582;5.298;2023-03-29T15:32:31;22.30;47.60
33827;DHT22;20128;45.582;5.298;2023-03-29T15:34:56;22.30;47.40
33827;DHT22;20128;45.582;5.298;2023-03-29T15:37:22;22.30;47.30
33827;DHT22;20128;45.582;5.298;2023-03-29T15:39:47;22.30;47.40
33827;DHT22;20128;45.582;5.298;2023-03-29T15:42:13;22.20;47.20
33827;DHT22;20128;45.582;5.298;2023-03-29T15:44:38;22.20;47.40
33827;DHT22;20128;45.582;5.298;2023-03-29T15:47:10;22.20;47.30
33827;DHT22;20128;45.582;5.298;2023-03-29T15:49:36;22.10;47.10
33827;DHT22;20128;45.582;5.298;2023-03-29T15:52:01;22.10;47.10
33827;DHT22;20128;45.582;5.298;2023-03-29T15:54:27;22.20;47.30
33827;DHT22;20128;45.582;5.298;2023-03-29T15:56:55;22.20;47.30
33827;DHT22;20128;45.582;5.298;2023-03-29T15:59:25;22.10;47.40
33827;DHT22;20128;45.582;5.298;2023-03-29T16:01:50;22.10;47.60
33827;DHT22;20128;45.582;5.298;2023-03-29T16:04:17;22.10;47.70
33827;DHT22;20128;45.582;5.298;2023-03-29T16:06:43;22.10;47.70
33827;DHT22;20128;45.582;5.298;2023-03-29T16:09:09;22.10;47.70
33827;DHT22;20128;45.582;5.298;2023-03-29T16:11:36;22.10;48.00
33827;DHT22;20128;45.582;5.298;2023-03-29T16:14:04;22.00;48.10
33827;DHT22;20128;45.582;5.298;2023-03-29T16:16:30;22.00;48.10
33827;DHT22;20128;45.582;5.298;2023-03-29T16:18:56;22.00;48.40
33827;DHT22;20128;45.582;5.298;2023-03-29T16:21:21;22.00;48.40
33827;DHT22;20128;45.582;5.298;2023-03-29T16:23:47;21.90;48.20
33827;DHT22;20128;45.582;5.298;2023-03-29T16:26:14;21.90;48.10
33827;DHT22;20128;45.582;5.298;2023-03-29T16:28:40;21.90;48.10
33827;DHT22;20128;45.582;5.298;2023-03-29T16:31:08;21.80;48.00
33827;DHT22;20128;45.582;5.298;2023-03-29T16:33:33;21.80;48.10
33827;DHT22;20128;45.582;5.298;2023-03-29T16:35:59;21.80;48.10
33827;DHT22;20128;45.582;5.298;2023-03-29T16:38:25;21.70;48.00
33827;DHT22;20128;45.582;5.298;2023-03-29T16:40:52;21.70;48.30
33827;DHT22;20128;45.582;5.298;2023-03-29T16:43:18;21.60;48.40
33827;DHT22;20128;45.582;5.298;2023-03-29T16:45:43;21.60;48.70
33827;DHT22;20128;45.582;5.298;2023-03-29T16:48:16;21.60;48.60
33827;DHT22;20128;45.582;5.298;2023-03-29T16:50:42;21.50;48.70
33827;DHT22;20128;45.582;5.298;2023-03-29T16:53:08;21.50;48.90
33827;DHT22;20128;45.582;5.298;2023-03-29T16:55:33;21.60;50.60
33827;DHT22;20128;45.582;5.298;2023-03-29T16:58:00;21.50;49.80
33827;DHT22;20128;45.582;5.298;2023-03-29T17:00:25;21.50;49.90
33827;DHT22;20128;45.582;5.298;2023-03-29T17:02:51;21.40;50.20
33827;DHT22;20128;45.582;5.298;2023-03-29T17:05:17;21.40;51.60
33827;DHT22;20128;45.582;5.298;2023-03-29T17:07:42;21.40;52.10
33827;DHT22;20128;45.582;5.298;2023-03-29T17:10:09;21.30;52.20
33827;DHT22;20128;45.582;5.298;2023-03-29T17:12:35;21.30;51.20
33827;DHT22;20128;45.582;5.298;2023-03-29T17:15:01;21.20;50.50
33827;DHT22;20128;45.582;5.298;2023-03-29T17:17:26;21.20;50.60
33827;DHT22;20128;45.582;5.298;2023-03-29T17:19:53;21.10;50.80
33827;DHT22;20128;45.582;5.298;2023-03-29T17:22:19;21.10;51.40
33827;DHT22;20128;45.582;5.298;2023-03-29T17:24:44;21.10;51.30
33827;DHT22;20128;45.582;5.298;2023-03-29T17:27:10;21.00;51.70
33827;DHT22;20128;45.582;5.298;2023-03-29T17:29:35;21.00;51.90